createdAt,value
2022-08-08T00:00:52.541Z,66.15
2022-08-08T00:06:03.040Z,65.92
2022-08-08T00:11:15.522Z,65.77
2022-08-08T00:16:43.722Z,66.00
2022-08-08T00:21:51.315Z,66.47
2022-08-08T00:26:57.165Z,67.05
2022-08-08T00:32:20.203Z,67.48
2022-08-08T00:38:01.860Z,67.80
2022-08-08T00:43:58.871Z,68.37
2022-08-08T00:49:42.249Z,69.36
2022-08-08T00:55:17.471Z,69.72
2022-08-08T01:00:34.518Z,70.04
2022-08-08T01:06:05.079Z,70.45
2022-08-08T01:11:34.457Z,70.49
2022-08-08T01:16:54.310Z,70.96
2022-08-08T01:22:10.326Z,71.28
2022-08-08T01:27:46.347Z,71.85
2022-08-08T01:33:24.116Z,72.58
2022-08-08T01:38:54.030Z,72.72
2022-08-08T01:44:26.318Z,73.00
2022-08-08T01:50:26.047Z,73.11
2022-08-08T01:56:28.908Z,74.27
2022-08-08T02:01:36.045Z,73.93
2022-08-08T02:07:04.158Z,73.86
2022-08-08T02:12:24.789Z,74.19
2022-08-08T02:18:11.182Z,74.88
2022-08-08T02:23:31.610Z,75.16
2022-08-08T02:28:48.547Z,75.55
2022-08-08T02:34:08.222Z,75.44
2022-08-08T02:40:00.007Z,75.78
2022-08-08T02:45:26.855Z,76.59
2022-08-08T02:51:15.333Z,76.52
2022-08-08T02:56:52.130Z,76.66
2022-08-08T03:02:20.661Z,77.23
2022-08-08T03:07:41.729Z,77.77
2022-08-08T03:13:01.635Z,78.20
2022-08-08T03:18:13.624Z,77.89
2022-08-08T03:23:17.922Z,78.21
2022-08-08T03:28:35.707Z,78.84
2022-08-08T03:33:54.734Z,78.82
2022-08-08T03:39:14.422Z,79.51
2022-08-08T03:44:20.259Z,80.78
2022-08-08T03:49:58.519Z,80.41
2022-08-08T03:55:02.493Z,80.43
2022-08-08T04:00:18.269Z,79.97
2022-08-08T04:05:29.189Z,79.49
2022-08-08T04:10:37.985Z,79.85
2022-08-08T04:16:03.227Z,80.17
2022-08-08T04:21:05.079Z,79.47
2022-08-08T04:26:10.813Z,78.60
2022-08-08T04:31:57.365Z,77.54
2022-08-08T04:36:37.813Z,76.37
2022-08-08T04:41:40.347Z,75.56
2022-08-08T04:46:42.238Z,75.15
2022-08-08T04:51:55.031Z,73.93
2022-08-08T04:57:00.134Z,73.36
2022-08-08T05:02:03.333Z,71.86
2022-08-08T05:07:09.483Z,69.65
2022-08-08T05:12:20.987Z,71.19
2022-08-08T05:17:24.182Z,72.18
2022-08-08T05:22:27.368Z,74.12
2022-08-08T05:27:33.147Z,73.71
2022-08-08T05:32:38.351Z,74.25
2022-08-08T05:37:53.964Z,75.95
2022-08-08T05:44:02.699Z,75.68
2022-08-08T05:48:59.492Z,75.41
2022-08-08T05:54:28.285Z,74.95
2022-08-08T06:00:01.398Z,74.83
2022-08-08T06:05:33.274Z,74.06
2022-08-08T06:10:39.211Z,73.23
2022-08-08T06:15:51.051Z,71.88
2022-08-08T06:21:03.648Z,72.13
2022-08-08T06:26:38.953Z,71.68
2022-08-08T06:31:52.803Z,70.77
2022-08-08T06:37:02.220Z,69.69
2022-08-08T06:42:29.108Z,69.48
2022-08-08T06:47:52.705Z,68.02
2022-08-08T06:53:17.448Z,67.58
2022-08-08T06:58:30.994Z,66.70
2022-08-08T07:04:37.584Z,65.82
2022-08-08T07:09:21.793Z,66.06
2022-08-08T07:14:51.493Z,64.37
2022-08-08T07:20:08.380Z,63.04
2022-08-08T07:25:17.258Z,62.16
2022-08-08T07:30:26.196Z,61.88
2022-08-08T07:35:35.553Z,62.78
2022-08-08T07:40:41.204Z,60.48
2022-08-08T07:46:05.261Z,59.60
2022-08-08T07:51:23.942Z,58.00
2022-08-08T07:56:42.363Z,58.19
2022-08-08T08:02:34.636Z,56.04
2022-08-08T08:07:31.918Z,56.15
2022-08-08T08:12:50.514Z,53.82
2022-08-08T08:17:58.106Z,53.46
2022-08-08T08:23:01.901Z,52.97
2022-08-08T08:28:04.725Z,50.33
2022-08-08T08:33:12.091Z,51.28
2022-08-08T08:38:17.876Z,51.27
2022-08-08T08:43:26.988Z,51.75
2022-08-08T08:48:33.892Z,50.87
2022-08-08T08:53:56.474Z,49.38
2022-08-08T08:59:23.923Z,48.97
2022-08-08T09:04:49.714Z,46.33
2022-08-08T09:09:58.179Z,47.51
2022-08-08T09:15:41.024Z,47.55
2022-08-08T09:21:56.005Z,47.00
2022-08-08T09:26:49.816Z,47.57
2022-08-08T09:32:14.646Z,46.91
2022-08-08T09:38:01.678Z,45.97
2022-08-08T09:43:16.850Z,45.84
2022-08-08T09:48:43.059Z,44.72
2022-08-08T09:54:09.419Z,44.77
2022-08-08T10:00:01.195Z,43.87
2022-08-08T10:05:15.658Z,43.94
2022-08-08T10:10:50.061Z,43.30
2022-08-08T10:16:09.028Z,41.92
2022-08-08T10:21:42.282Z,42.71
2022-08-08T10:27:01.371Z,41.59
2022-08-08T10:46:30.436Z,40.77
2022-08-08T10:51:51.141Z,40.96
2022-08-08T11:02:43.152Z,40.19
2022-08-08T11:08:38.428Z,39.61
2022-08-08T11:19:46.551Z,39.11
2022-08-08T11:25:16.298Z,39.29
2022-08-08T11:30:40.954Z,38.16
2022-08-08T11:36:17.652Z,38.51
2022-08-08T11:41:42.345Z,39.31
2022-08-08T11:47:12.835Z,38.52
2022-08-08T11:52:47.313Z,39.05
2022-08-08T11:58:15.679Z,38.47
2022-08-08T12:03:21.021Z,38.44
2022-08-08T12:08:32.074Z,37.53
2022-08-08T12:14:02.828Z,37.35
2022-08-08T12:18:56.824Z,36.53
2022-08-08T12:24:14.110Z,36.06
2022-08-08T12:29:39.942Z,36.68
2022-08-08T12:34:50.235Z,37.06
2022-08-08T12:40:00.846Z,36.63
2022-08-08T12:45:20.022Z,35.63
2022-08-08T12:50:46.725Z,36.25
2022-08-08T12:56:19.035Z,35.85
2022-08-08T13:01:37.776Z,35.23
2022-08-08T13:07:00.900Z,35.48
2022-08-08T13:12:46.009Z,35.97
2022-08-08T13:18:11.583Z,35.84
2022-08-08T13:23:41.378Z,36.21
2022-08-08T13:28:45.590Z,36.25
2022-08-08T13:33:49.974Z,35.54
2022-08-08T13:38:53.873Z,35.59
2022-08-08T13:43:57.603Z,34.65
2022-08-08T13:50:33.605Z,34.74
2022-08-08T13:54:40.733Z,34.81
2022-08-08T13:59:49.219Z,34.67
2022-08-08T14:05:04.836Z,35.11
2022-08-08T14:10:33.570Z,34.94
2022-08-08T14:15:46.366Z,35.10
2022-08-08T14:21:03.755Z,34.82
2022-08-08T14:26:27.981Z,34.85
2022-08-08T14:32:07.035Z,34.84
2022-08-08T14:36:54.535Z,35.05
2022-08-08T14:42:17.547Z,34.88
2022-08-08T14:47:37.924Z,34.80
2022-08-08T14:53:08.277Z,35.45
2022-08-08T14:58:16.796Z,35.17
2022-08-08T15:03:28.813Z,35.02
2022-08-08T15:08:54.392Z,34.47
2022-08-08T15:14:02.982Z,34.29
2022-08-08T15:19:16.410Z,34.51
2022-08-08T15:24:20.465Z,34.30
2022-08-08T15:29:26.617Z,34.02
2022-08-08T15:34:33.364Z,34.21
2022-08-08T15:39:39.726Z,34.77
2022-08-08T15:44:45.455Z,34.75
2022-08-08T15:49:48.754Z,35.07
2022-08-08T15:54:52.917Z,35.51
2022-08-08T16:00:18.131Z,35.24
2022-08-08T16:05:19.378Z,35.35
2022-08-08T16:13:11.564Z,35.66
2022-08-08T16:15:58.810Z,35.23
2022-08-08T16:21:25.803Z,35.27
2022-08-08T16:26:34.078Z,35.24
2022-08-08T16:31:44.691Z,35.31
2022-08-08T16:36:51.141Z,35.49
2022-08-08T16:41:54.019Z,35.13
2022-08-08T16:47:42.369Z,35.73
2022-08-08T16:55:06.468Z,35.66
2022-08-08T16:58:15.177Z,35.58
2022-08-08T17:04:01.500Z,35.22
2022-08-08T17:09:15.875Z,35.30
2022-08-08T17:14:33.824Z,34.77
2022-08-08T17:19:41.739Z,35.58
2022-08-08T17:24:53.535Z,35.46
2022-08-08T17:30:27.225Z,35.09
2022-08-08T17:35:56.204Z,34.85
2022-08-08T17:40:57.597Z,34.67
2022-08-08T17:46:06.329Z,34.78
2022-08-08T17:51:18.026Z,35.34
2022-08-08T17:56:26.343Z,36.52
2022-08-08T18:01:57.836Z,37.29
2022-08-08T18:07:01.913Z,37.84
2022-08-08T18:12:11.360Z,38.40
2022-08-08T18:17:37.883Z,38.79
2022-08-08T18:22:51.094Z,39.29
2022-08-08T18:29:06.114Z,39.87
2022-08-08T18:34:27.624Z,40.38
2022-08-08T18:39:59.326Z,40.78
2022-08-08T18:46:54.434Z,41.18
2022-08-08T18:51:48.499Z,41.65
2022-08-08T18:57:05.029Z,42.36
2022-08-08T19:02:27.166Z,43.08
2022-08-08T19:07:33.219Z,43.57
2022-08-08T19:12:53.107Z,44.19
2022-08-08T19:18:33.214Z,44.91
2022-08-08T19:23:28.562Z,45.32
2022-08-08T19:28:38.149Z,45.86
2022-08-08T19:34:04.999Z,46.43
2022-08-08T19:39:09.986Z,47.90
2022-08-08T19:44:42.372Z,48.77
2022-08-08T19:49:38.224Z,50.02
2022-08-08T19:54:44.631Z,51.41
2022-08-08T19:59:48.035Z,52.92
2022-08-08T20:04:52.642Z,52.97
2022-08-08T20:09:58.586Z,52.81
2022-08-08T20:15:01.081Z,53.00
2022-08-08T20:20:08.718Z,53.30
2022-08-08T20:25:17.401Z,53.53
2022-08-08T20:30:53.842Z,54.15
2022-08-08T20:36:08.439Z,55.36
2022-08-08T20:41:17.443Z,56.62
2022-08-08T20:46:25.950Z,57.94
2022-08-08T20:51:38.826Z,58.75
2022-08-08T20:57:05.784Z,58.48
2022-08-08T21:02:16.445Z,58.66
2022-08-08T21:07:47.804Z,58.81
2022-08-08T21:12:54.172Z,59.48
2022-08-08T21:17:56.740Z,60.44
2022-08-08T21:22:58.715Z,61.07
2022-08-08T21:28:13.411Z,61.38
2022-08-08T21:33:20.368Z,62.24
2022-08-08T21:38:23.850Z,63.02
2022-08-08T21:43:32.898Z,63.13
2022-08-08T21:48:41.639Z,63.01
2022-08-08T21:54:30.823Z,63.35
2022-08-08T21:59:15.231Z,63.50
2022-08-08T22:04:17.468Z,64.17
2022-08-08T22:09:19.859Z,64.76
2022-08-08T22:14:29.371Z,65.23
2022-08-08T22:20:12.278Z,65.61
2022-08-08T22:24:54.805Z,66.11
2022-08-08T22:30:02.407Z,66.55
2022-08-08T22:35:05.877Z,67.17
2022-08-08T22:40:16.487Z,67.15
2022-08-08T22:45:19.086Z,66.85
2022-08-08T22:50:25.820Z,66.67
2022-08-08T22:55:32.849Z,66.62
2022-08-08T23:00:54.917Z,66.38
2022-08-08T23:05:56.928Z,66.43
2022-08-08T23:11:06.019Z,66.69
2022-08-08T23:16:37.786Z,67.21
2022-08-08T23:21:38.063Z,67.81
2022-08-08T23:26:41.149Z,68.31
2022-08-08T23:31:55.076Z,67.79
2022-08-08T23:36:57.932Z,67.49
2022-08-08T23:42:01.690Z,67.55
2022-08-08T23:49:04.323Z,67.46
2022-08-08T23:52:26.013Z,67.80
2022-08-08T23:57:39.420Z,68.01
